createdAt,value
2023-04-01T00:02:18.914Z,9.80
2023-04-01T00:06:21.937Z,9.90
2023-04-01T00:10:26.144Z,10.00
2023-04-01T00:14:29.932Z,9.90
2023-04-01T00:18:32.908Z,10.00
2023-04-01T00:22:35.976Z,9.90
2023-04-01T00:26:40.178Z,9.60
2023-04-01T00:30:43.028Z,9.80
2023-04-01T00:34:46.420Z,9.60
2023-04-01T00:38:49.869Z,9.80
2023-04-01T00:42:54.161Z,9.70
2023-04-01T00:46:57.379Z,9.80
2023-04-01T00:51:03.008Z,9.80
2023-04-01T00:55:09.160Z,9.60
2023-04-01T00:59:17.945Z,9.50
2023-04-01T01:03:20.891Z,9.50
2023-04-01T01:07:32.082Z,9.60
2023-04-01T01:11:43.800Z,9.70
2023-04-01T01:15:52.308Z,9.60
2023-04-01T01:20:25.869Z,9.60
2023-04-01T01:24:56.564Z,9.60
2023-04-01T01:29:07.685Z,9.60
2023-04-01T01:33:36.588Z,9.30
2023-04-01T01:37:43.052Z,9.50
2023-04-01T01:41:50.317Z,9.50
2023-04-01T01:45:56.432Z,9.50
2023-04-01T01:49:59.666Z,9.40
2023-04-01T01:54:03.905Z,9.30
2023-04-01T01:58:14.056Z,9.50
2023-04-01T02:02:18.169Z,9.40
2023-04-01T02:06:24.259Z,9.20
2023-04-01T02:10:30.845Z,9.20
2023-04-01T02:14:39.392Z,9.40
2023-04-01T02:18:44.687Z,9.40
2023-04-01T02:22:50.796Z,9.30
2023-04-01T02:26:55.305Z,9.20
2023-04-01T02:31:03.393Z,9.30
2023-04-01T02:35:08.095Z,9.30
2023-04-01T02:39:11.408Z,9.20
2023-04-01T02:43:15.731Z,9.30
2023-04-01T02:47:18.596Z,9.10
2023-04-01T02:51:21.396Z,9.00
2023-04-01T02:55:24.268Z,9.00
2023-04-01T02:59:28.518Z,9.30
2023-04-01T03:03:32.519Z,9.00
2023-04-01T03:07:35.587Z,9.10
2023-04-01T03:11:38.395Z,9.00
2023-04-01T03:15:42.629Z,9.20
2023-04-01T03:19:45.612Z,8.80
2023-04-01T03:23:48.692Z,9.00
2023-04-01T03:27:51.630Z,8.90
2023-04-01T03:31:58.729Z,9.00
2023-04-01T03:36:01.697Z,8.90
2023-04-01T03:40:05.233Z,9.00
2023-04-01T03:44:08.793Z,8.90
2023-04-01T03:48:13.054Z,8.60
2023-04-01T03:52:15.985Z,8.60
2023-04-01T03:56:18.738Z,8.60
2023-04-01T04:00:21.736Z,8.50
2023-04-01T04:04:31.879Z,9.00
2023-04-01T04:08:34.752Z,8.90
2023-04-01T04:12:37.598Z,8.50
2023-04-01T04:16:40.577Z,8.50
2023-04-01T04:20:49.377Z,8.50
2023-04-01T04:24:52.213Z,8.80
2023-04-01T04:28:56.595Z,8.90
2023-04-01T04:32:59.702Z,8.60
2023-04-01T04:37:04.217Z,8.60
2023-04-01T04:41:12.819Z,8.60
2023-04-01T04:45:16.890Z,8.60
2023-04-01T04:49:29.053Z,8.60
2023-04-01T04:53:33.618Z,8.80
2023-04-01T04:57:36.508Z,8.90
2023-04-01T05:01:39.476Z,8.70
2023-04-01T05:05:49.794Z,8.90
2023-04-01T05:09:53.973Z,8.70
2023-04-01T05:13:56.788Z,9.00
2023-04-01T05:17:59.736Z,8.80
2023-04-01T05:22:02.715Z,8.90
2023-04-01T05:26:09.072Z,9.00
2023-04-01T05:30:13.106Z,8.90
2023-04-01T05:34:20.907Z,9.10
2023-04-01T05:38:24.165Z,9.00
2023-04-01T05:42:28.374Z,9.10
2023-04-01T05:46:31.572Z,9.20
2023-04-01T05:50:43.444Z,9.00
2023-04-01T05:54:47.643Z,9.20
2023-04-01T05:58:54.935Z,9.20
2023-04-01T06:03:00.841Z,9.10
2023-04-01T06:07:12.708Z,9.40
2023-04-01T06:11:36.486Z,9.40
2023-04-01T06:15:45.968Z,9.40
2023-04-01T06:19:55.450Z,9.80
2023-04-01T06:24:14.015Z,10.10
2023-04-01T06:28:42.572Z,10.20
2023-04-01T06:33:11.048Z,10.40
2023-04-01T06:37:31.581Z,11.20
2023-04-01T06:42:00.760Z,11.70
2023-04-01T06:46:13.388Z,12.40
2023-04-01T06:50:54.725Z,12.40
2023-04-01T06:55:36.669Z,12.40
2023-04-01T07:00:08.110Z,13.20
2023-04-01T07:04:16.054Z,12.80
2023-04-01T07:08:24.457Z,12.70
2023-04-01T07:12:38.820Z,12.80
2023-04-01T07:17:05.396Z,13.50
2023-04-01T07:21:16.419Z,14.30
2023-04-01T07:25:26.142Z,14.20
2023-04-01T07:29:45.224Z,14.30
2023-04-01T07:33:59.796Z,14.80
2023-04-01T07:38:17.007Z,14.40
2023-04-01T07:42:32.527Z,14.00
2023-04-01T07:46:49.778Z,13.60
2023-04-01T07:50:58.156Z,13.60
2023-04-01T07:55:11.010Z,13.70
2023-04-01T07:59:24.136Z,13.30
2023-04-01T08:03:47.954Z,13.00
2023-04-01T08:08:01.659Z,12.70
2023-04-01T08:12:34.127Z,13.00
2023-04-01T08:16:47.300Z,12.80
2023-04-01T08:21:01.762Z,13.00
2023-04-01T08:25:08.632Z,12.80
2023-04-01T08:29:17.477Z,13.00
2023-04-01T08:33:27.022Z,13.20
2023-04-01T08:37:38.619Z,13.80
2023-04-01T08:42:04.624Z,13.30
2023-04-01T08:47:12.911Z,15.30
2023-04-01T08:51:47.141Z,15.40
2023-04-01T08:56:02.829Z,14.30
2023-04-01T09:00:18.238Z,14.90
2023-04-01T09:05:03.302Z,17.20
2023-04-01T09:09:42.090Z,16.90
2023-04-01T09:14:14.850Z,15.90
2023-04-01T09:18:41.320Z,14.90
2023-04-01T09:22:55.079Z,14.90
2023-04-01T09:27:07.544Z,15.30
2023-04-01T09:31:27.795Z,15.40
2023-04-01T09:35:54.330Z,17.90
2023-04-01T09:40:14.124Z,18.00
2023-04-01T09:44:26.846Z,17.70
2023-04-01T09:48:57.687Z,18.00
2023-04-01T09:53:13.094Z,17.30
2023-04-01T09:57:58.818Z,16.60
2023-04-01T10:03:04.698Z,16.10
2023-04-01T10:07:55.607Z,15.90
2023-04-01T10:12:34.158Z,15.90
2023-04-01T10:16:59.878Z,15.30
2023-04-01T10:21:27.562Z,15.30
2023-04-01T10:25:46.247Z,15.00
2023-04-01T10:30:16.302Z,14.60
2023-04-01T10:34:54.360Z,14.60
2023-04-01T10:39:10.935Z,14.40
2023-04-01T10:43:51.275Z,14.10
2023-04-01T10:48:30.931Z,13.60
2023-04-01T10:53:10.874Z,13.40
2023-04-01T10:58:10.564Z,13.20
2023-04-01T11:03:23.106Z,13.20
2023-04-01T11:08:19.858Z,13.30
2023-04-01T11:12:51.677Z,13.30
2023-04-01T11:17:28.275Z,13.30
2023-04-01T11:22:07.124Z,13.40
2023-04-01T11:26:34.450Z,13.30
2023-04-01T11:31:22.444Z,13.50
2023-04-01T11:35:40.901Z,13.40
2023-04-01T11:40:01.636Z,13.10
2023-04-01T11:44:36.981Z,13.00
2023-04-01T11:49:08.609Z,12.60
2023-04-01T11:53:29.548Z,12.40
2023-04-01T11:57:48.632Z,12.20
2023-04-01T12:02:01.744Z,12.30
2023-04-01T12:06:13.477Z,12.30
2023-04-01T12:10:20.553Z,12.20
2023-04-01T12:14:32.872Z,12.10
2023-04-01T12:18:40.853Z,12.00
2023-04-01T12:22:53.798Z,11.80
2023-04-01T12:27:09.129Z,11.80
2023-04-01T12:31:30.078Z,11.80
2023-04-01T12:35:45.594Z,11.80
2023-04-01T12:40:04.975Z,11.60
2023-04-01T12:44:36.596Z,11.60
2023-04-01T12:49:12.376Z,11.70
2023-04-01T12:53:34.966Z,11.80
2023-04-01T12:58:19.588Z,11.70
2023-04-01T13:02:35.379Z,11.50
2023-04-01T13:06:52.522Z,11.50
2023-04-01T13:11:06.971Z,11.60
2023-04-01T13:15:23.534Z,11.30
2023-04-01T13:19:36.822Z,11.20
2023-04-01T13:23:51.053Z,11.50
2023-04-01T13:27:59.306Z,11.50
2023-04-01T13:32:15.947Z,11.40
2023-04-01T13:36:32.814Z,11.40
2023-04-01T13:40:42.756Z,11.40
2023-04-01T13:44:51.771Z,11.60
2023-04-01T13:49:28.842Z,11.70
2023-04-01T13:53:51.881Z,11.60
2023-04-01T13:58:26.041Z,11.90
2023-04-01T14:02:55.871Z,11.70
2023-04-01T14:07:16.509Z,11.60
2023-04-01T14:11:28.424Z,11.70
2023-04-01T14:15:52.161Z,11.70
2023-04-01T14:20:22.203Z,11.60
2023-04-01T14:24:47.871Z,11.60
2023-04-01T14:29:02.660Z,11.50
2023-04-01T14:33:21.050Z,11.30
2023-04-01T14:37:59.683Z,11.30
2023-04-01T14:42:22.321Z,11.50
2023-04-01T14:46:45.345Z,11.30
2023-04-01T14:50:51.130Z,11.20
2023-04-01T14:54:54.605Z,11.30
2023-04-01T14:58:59.887Z,11.10
2023-04-01T15:03:15.540Z,11.20
2023-04-01T15:07:44.434Z,11.40
2023-04-01T15:12:00.381Z,11.60
2023-04-01T15:16:13.625Z,11.50
2023-04-01T15:20:32.817Z,11.40
2023-04-01T15:24:45.329Z,11.50
2023-04-01T15:28:58.242Z,11.50
2023-04-01T15:33:15.940Z,11.80
2023-04-01T15:37:30.808Z,11.70
2023-04-01T15:41:45.460Z,11.50
2023-04-01T15:45:58.217Z,11.40
2023-04-01T15:50:24.976Z,11.50
2023-04-01T15:54:53.057Z,11.50
2023-04-01T15:59:07.007Z,11.60
2023-04-01T16:03:21.229Z,11.50
2023-04-01T16:07:55.662Z,11.40
2023-04-01T16:12:09.184Z,11.30
2023-04-01T16:16:23.139Z,11.60
2023-04-01T16:20:36.973Z,11.50
2023-04-01T16:24:46.649Z,11.40
2023-04-01T16:28:56.943Z,11.20
2023-04-01T16:33:04.803Z,11.30
2023-04-01T16:37:13.875Z,11.20
2023-04-01T16:41:20.898Z,11.10
2023-04-01T16:45:35.169Z,11.10
2023-04-01T16:49:42.528Z,11.10
2023-04-01T16:53:49.325Z,11.00
2023-04-01T16:57:54.222Z,11.10
2023-04-01T17:02:06.338Z,10.90
2023-04-01T17:06:20.493Z,11.20
2023-04-01T17:10:42.437Z,11.10
2023-04-01T17:14:52.542Z,11.00
2023-04-01T17:19:04.639Z,11.00
2023-04-01T17:23:16.188Z,11.00
2023-04-01T17:27:33.874Z,10.80
2023-04-01T17:31:46.933Z,10.90
2023-04-01T17:35:59.673Z,10.60
2023-04-01T17:40:30.569Z,10.70
2023-04-01T17:44:43.730Z,10.90
2023-04-01T17:48:56.869Z,10.70
2023-04-01T17:53:18.271Z,10.80
2023-04-01T17:57:36.146Z,10.90
2023-04-01T18:01:50.270Z,10.70
2023-04-01T18:06:06.088Z,10.90
2023-04-01T18:10:27.347Z,10.90
2023-04-01T18:15:06.401Z,11.00
2023-04-01T18:19:18.143Z,10.90
2023-04-01T18:23:31.447Z,10.80
2023-04-01T18:27:40.151Z,10.80
2023-04-01T18:31:46.297Z,10.80
2023-04-01T18:35:54.550Z,10.80
2023-04-01T18:40:02.605Z,10.80
2023-04-01T18:44:29.732Z,10.70
2023-04-01T18:48:39.754Z,10.60
2023-04-01T18:52:45.538Z,10.50
2023-04-01T18:56:48.466Z,10.70
2023-04-01T19:01:07.621Z,10.40
2023-04-01T19:05:16.368Z,10.40
2023-04-01T19:09:22.996Z,10.50
2023-04-01T19:13:32.262Z,10.40
2023-04-01T19:17:51.339Z,10.40
2023-04-01T19:22:00.297Z,10.00
2023-04-01T19:26:07.509Z,10.10
2023-04-01T19:30:24.642Z,10.40
2023-04-01T19:34:43.812Z,10.50
2023-04-01T19:38:55.615Z,10.40
2023-04-01T19:43:04.660Z,10.10
2023-04-01T19:47:17.980Z,10.30
2023-04-01T19:51:27.651Z,10.00
2023-04-01T19:55:38.609Z,10.20
2023-04-01T19:59:49.157Z,9.90
2023-04-01T20:03:57.622Z,10.10
2023-04-01T20:08:09.937Z,10.10
2023-04-01T20:12:21.985Z,10.10
2023-04-01T20:16:53.281Z,10.00
2023-04-01T20:20:58.359Z,9.80
2023-04-01T20:25:11.389Z,9.90
2023-04-01T20:29:37.404Z,9.80
2023-04-01T20:34:05.321Z,9.70
2023-04-01T20:38:32.542Z,9.50
2023-04-01T20:42:51.554Z,9.80
2023-04-01T20:47:03.221Z,9.70
2023-04-01T20:51:08.682Z,9.60
2023-04-01T20:55:55.529Z,9.50
2023-04-01T21:00:16.436Z,9.50
2023-04-01T21:04:25.657Z,9.70
2023-04-01T21:08:42.411Z,9.40
2023-04-01T21:12:48.136Z,9.50
2023-04-01T21:16:59.494Z,9.60
2023-04-01T21:21:28.460Z,9.90
2023-04-01T21:25:41.944Z,9.60
2023-04-01T21:29:55.190Z,9.50
2023-04-01T21:34:15.600Z,9.40
2023-04-01T21:38:41.109Z,9.60
2023-04-01T21:42:50.642Z,9.60
2023-04-01T21:47:11.220Z,9.70
2023-04-01T21:52:07.819Z,9.50
2023-04-01T21:56:46.156Z,9.50
2023-04-01T22:01:02.649Z,9.60
2023-04-01T22:05:11.505Z,9.60
2023-04-01T22:09:23.334Z,9.50
2023-04-01T22:13:34.688Z,9.40
2023-04-01T22:17:43.255Z,9.60
2023-04-01T22:22:02.029Z,9.60
2023-04-01T22:26:11.780Z,9.80
2023-04-01T22:30:22.396Z,9.80
2023-04-01T22:34:36.177Z,9.40
2023-04-01T22:38:56.882Z,9.50
2023-04-01T22:43:03.334Z,9.60
2023-04-01T22:47:16.690Z,9.80
2023-04-01T22:51:23.647Z,9.60
2023-04-01T22:55:29.500Z,9.60
2023-04-01T22:59:38.894Z,9.40
2023-04-01T23:03:45.998Z,9.30
2023-04-01T23:07:56.006Z,9.40
2023-04-01T23:12:01.385Z,9.40
2023-04-01T23:16:04.338Z,9.40
2023-04-01T23:20:21.691Z,9.40
2023-04-01T23:24:30.342Z,9.30
2023-04-01T23:28:47.337Z,9.50
2023-04-01T23:32:50.274Z,9.20
2023-04-01T23:36:57.185Z,9.50
2023-04-01T23:41:00.162Z,9.50
2023-04-01T23:45:05.353Z,9.30
2023-04-01T23:49:14.478Z,9.30
2023-04-01T23:53:22.800Z,9.40
2023-04-01T23:57:30.916Z,9.40
